Flugplatz Paderborn Lippstadt

Bericht für EDLP

vom 12.12. um 23:50 UTC

variable Windrichtung mit 2 kt

Sichtweite 10 km oder mehr

gering bewölkt in 1900 ft

bedeckt in 2300 ft

Temperatur 2.0°C

Taupunkt 0.0°C

Luftfeuchtigkeit 87%

Luftdruck 1023 hPa

EDLP 122350Z VRB02KT 9999 FEW019 OVC023 02/00 Q1023

Prognose für EDLP

vom 12.12. um 23:00 UTC

Zwischen 00:00 UTC und 07:00 UTC zeitweise mit einer Wahrscheinlichkeit von 30%

aufgebrochene Bewölkung in 1300 ft


Zwischen 00:00 UTC und 00:00 UTC

Wind 5 kt aus 40°

Sichtweite 10 km oder mehr

aufgelockert bewölkt in 1200 ft

aufgebrochene Bewölkung in 2000 ft


Zwischen 00:00 und 03:00 UTC übergehend zu

Wind 8 kt aus 100°

Sichtweite 10 km oder mehr

aufgelockert bewölkt in 1200 ft

aufgebrochene Bewölkung in 2000 ft

TAF EDLP 122300Z 1300/1324 04005KT 9999 SCT012 BKN020 BECMG 1300/1303 10008KT PROB30 TEMPO 1300/1307 BKN013
Impressum